sensor_id;sensor_type;location;lat;lon;timestamp;pressure;altitude;pressure_sealevel;temperature
15607;BMP180;7865;50.918;4.510;2024-02-28T00:05:02;101491.00;;;2.30
15607;BMP180;7865;50.918;4.510;2024-02-28T00:10:03;101489.00;;;2.30
15607;BMP180;7865;50.918;4.510;2024-02-28T00:15:07;101489.00;;;2.40
15607;BMP180;7865;50.918;4.510;2024-02-28T00:20:11;101483.00;;;2.40
15607;BMP180;7865;50.918;4.510;2024-02-28T00:25:14;101476.00;;;2.30
15607;BMP180;7865;50.918;4.510;2024-02-28T00:30:17;101468.00;;;2.40
15607;BMP180;7865;50.918;4.510;2024-02-28T00:35:18;101476.00;;;2.50
15607;BMP180;7865;50.918;4.510;2024-02-28T00:40:19;101477.00;;;2.50
15607;BMP180;7865;50.918;4.510;2024-02-28T00:45:20;101469.00;;;2.40
15607;BMP180;7865;50.918;4.510;2024-02-28T00:50:22;101476.00;;;2.30
15607;BMP180;7865;50.918;4.510;2024-02-28T00:55:23;101474.00;;;2.20
15607;BMP180;7865;50.918;4.510;2024-02-28T01:00:24;101479.00;;;2.10
15607;BMP180;7865;50.918;4.510;2024-02-28T01:05:25;101478.00;;;1.90
15607;BMP180;7865;50.918;4.510;2024-02-28T01:10:26;101465.00;;;1.80
15607;BMP180;7865;50.918;4.510;2024-02-28T01:15:27;101479.00;;;1.80
15607;BMP180;7865;50.918;4.510;2024-02-28T01:20:29;101468.00;;;1.70
15607;BMP180;7865;50.918;4.510;2024-02-28T01:25:30;101469.00;;;1.70
15607;BMP180;7865;50.918;4.510;2024-02-28T01:30:31;101469.00;;;1.70
15607;BMP180;7865;50.918;4.510;2024-02-28T01:35:32;101454.00;;;1.60
15607;BMP180;7865;50.918;4.510;2024-02-28T01:40:33;101458.00;;;1.40
15607;BMP180;7865;50.918;4.510;2024-02-28T01:45:34;101467.00;;;1.40
15607;BMP180;7865;50.918;4.510;2024-02-28T01:50:36;101472.00;;;1.40
15607;BMP180;7865;50.918;4.510;2024-02-28T01:55:38;101466.00;;;1.30
15607;BMP180;7865;50.918;4.510;2024-02-28T02:00:39;101468.00;;;1.40
15607;BMP180;7865;50.918;4.510;2024-02-28T02:05:41;101471.00;;;1.50
15607;BMP180;7865;50.918;4.510;2024-02-28T02:10:42;101469.00;;;1.50
15607;BMP180;7865;50.918;4.510;2024-02-28T02:15:44;101462.00;;;1.40
15607;BMP180;7865;50.918;4.510;2024-02-28T02:20:50;101456.00;;;1.40
15607;BMP180;7865;50.918;4.510;2024-02-28T02:25:51;101469.00;;;1.50
15607;BMP180;7865;50.918;4.510;2024-02-28T02:30:52;101467.00;;;1.50
15607;BMP180;7865;50.918;4.510;2024-02-28T02:35:54;101467.00;;;1.50
15607;BMP180;7865;50.918;4.510;2024-02-28T02:40:55;101484.00;;;1.40
15607;BMP180;7865;50.918;4.510;2024-02-28T02:45:56;101483.00;;;1.40
15607;BMP180;7865;50.918;4.510;2024-02-28T02:50:57;101481.00;;;1.50
15607;BMP180;7865;50.918;4.510;2024-02-28T02:55:58;101474.00;;;1.60
15607;BMP180;7865;50.918;4.510;2024-02-28T03:00:59;101467.00;;;1.70
15607;BMP180;7865;50.918;4.510;2024-02-28T03:06:01;101466.00;;;1.70
15607;BMP180;7865;50.918;4.510;2024-02-28T03:11:02;101475.00;;;1.70
15607;BMP180;7865;50.918;4.510;2024-02-28T03:16:05;101463.00;;;1.70
15607;BMP180;7865;50.918;4.510;2024-02-28T03:21:07;101472.00;;;1.70
15607;BMP180;7865;50.918;4.510;2024-02-28T03:26:08;101468.00;;;1.70
15607;BMP180;7865;50.918;4.510;2024-02-28T03:31:09;101475.00;;;1.80
15607;BMP180;7865;50.918;4.510;2024-02-28T03:36:10;101476.00;;;1.60
15607;BMP180;7865;50.918;4.510;2024-02-28T03:41:11;101474.00;;;1.60
15607;BMP180;7865;50.918;4.510;2024-02-28T03:46:12;101465.00;;;1.70
15607;BMP180;7865;50.918;4.510;2024-02-28T03:51:13;101469.00;;;1.80
15607;BMP180;7865;50.918;4.510;2024-02-28T03:56:25;101464.00;;;1.80
15607;BMP180;7865;50.918;4.510;2024-02-28T04:01:27;101474.00;;;1.80
15607;BMP180;7865;50.918;4.510;2024-02-28T04:06:29;101474.00;;;1.80
15607;BMP180;7865;50.918;4.510;2024-02-28T04:11:30;101477.00;;;1.70
15607;BMP180;7865;50.918;4.510;2024-02-28T04:16:32;101477.00;;;1.60
15607;BMP180;7865;50.918;4.510;2024-02-28T04:21:33;101474.00;;;1.60
15607;BMP180;7865;50.918;4.510;2024-02-28T04:26:34;101468.00;;;1.60
15607;BMP180;7865;50.918;4.510;2024-02-28T04:31:37;101466.00;;;1.60
15607;BMP180;7865;50.918;4.510;2024-02-28T04:36:38;101467.00;;;1.60
15607;BMP180;7865;50.918;4.510;2024-02-28T04:41:40;101468.00;;;1.60
15607;BMP180;7865;50.918;4.510;2024-02-28T04:46:41;101462.00;;;1.60
15607;BMP180;7865;50.918;4.510;2024-02-28T04:51:42;101472.00;;;1.70
15607;BMP180;7865;50.918;4.510;2024-02-28T04:56:43;101482.00;;;1.70
15607;BMP180;7865;50.918;4.510;2024-02-28T05:01:44;101482.00;;;1.70
15607;BMP180;7865;50.918;4.510;2024-02-28T05:06:46;101496.00;;;1.70
15607;BMP180;7865;50.918;4.510;2024-02-28T05:11:47;101505.00;;;1.60
15607;BMP180;7865;50.918;4.510;2024-02-28T05:16:49;101515.00;;;1.60
15607;BMP180;7865;50.918;4.510;2024-02-28T05:21:50;101512.00;;;1.50
15607;BMP180;7865;50.918;4.510;2024-02-28T05:26:51;101517.00;;;1.40
15607;BMP180;7865;50.918;4.510;2024-02-28T05:31:52;101517.00;;;1.30
15607;BMP180;7865;50.918;4.510;2024-02-28T05:36:53;101527.00;;;1.50
15607;BMP180;7865;50.918;4.510;2024-02-28T05:41:55;101517.00;;;1.50
15607;BMP180;7865;50.918;4.510;2024-02-28T05:46:56;101504.00;;;1.50
15607;BMP180;7865;50.918;4.510;2024-02-28T05:51:57;101509.00;;;1.40
15607;BMP180;7865;50.918;4.510;2024-02-28T05:56:58;101500.00;;;1.40
15607;BMP180;7865;50.918;4.510;2024-02-28T06:01:59;101494.00;;;1.40
15607;BMP180;7865;50.918;4.510;2024-02-28T06:07:01;101502.00;;;1.50
15607;BMP180;7865;50.918;4.510;2024-02-28T06:12:02;101505.00;;;1.60
15607;BMP180;7865;50.918;4.510;2024-02-28T06:17:04;101506.00;;;1.70
15607;BMP180;7865;50.918;4.510;2024-02-28T06:22:05;101520.00;;;1.70
15607;BMP180;7865;50.918;4.510;2024-02-28T06:27:08;101515.00;;;1.80
15607;BMP180;7865;50.918;4.510;2024-02-28T06:32:13;101527.00;;;1.90
15607;BMP180;7865;50.918;4.510;2024-02-28T06:37:14;101521.00;;;2.00
15607;BMP180;7865;50.918;4.510;2024-02-28T06:42:15;101516.00;;;2.20
15607;BMP180;7865;50.918;4.510;2024-02-28T06:47:17;101528.00;;;2.60
15607;BMP180;7865;50.918;4.510;2024-02-28T06:52:19;101534.00;;;3.00
15607;BMP180;7865;50.918;4.510;2024-02-28T06:57:20;101545.00;;;3.30
15607;BMP180;7865;50.918;4.510;2024-02-28T07:02:21;101556.00;;;3.40
15607;BMP180;7865;50.918;4.510;2024-02-28T07:07:22;101578.00;;;3.50
15607;BMP180;7865;50.918;4.510;2024-02-28T07:12:23;101573.00;;;3.60
15607;BMP180;7865;50.918;4.510;2024-02-28T07:17:25;101587.00;;;3.70
15607;BMP180;7865;50.918;4.510;2024-02-28T07:22:26;101595.00;;;3.90
15607;BMP180;7865;50.918;4.510;2024-02-28T07:27:27;101598.00;;;4.10
15607;BMP180;7865;50.918;4.510;2024-02-28T07:32:29;101595.00;;;4.20
15607;BMP180;7865;50.918;4.510;2024-02-28T07:37:35;101598.00;;;4.50
15607;BMP180;7865;50.918;4.510;2024-02-28T07:42:36;101600.00;;;4.70
15607;BMP180;7865;50.918;4.510;2024-02-28T07:47:37;101591.00;;;4.90
15607;BMP180;7865;50.918;4.510;2024-02-28T07:52:39;101604.00;;;5.00
15607;BMP180;7865;50.918;4.510;2024-02-28T07:57:40;101613.00;;;5.20
15607;BMP180;7865;50.918;4.510;2024-02-28T08:02:41;101615.00;;;5.40
15607;BMP180;7865;50.918;4.510;2024-02-28T08:07:42;101621.00;;;5.90
15607;BMP180;7865;50.918;4.510;2024-02-28T08:12:44;101623.00;;;6.30
15607;BMP180;7865;50.918;4.510;2024-02-28T08:17:45;101627.00;;;6.70
15607;BMP180;7865;50.918;4.510;2024-02-28T08:22:46;101633.00;;;6.90
15607;BMP180;7865;50.918;4.510;2024-02-28T08:27:47;101644.00;;;7.00
15607;BMP180;7865;50.918;4.510;2024-02-28T08:32:49;101650.00;;;7.10
15607;BMP180;7865;50.918;4.510;2024-02-28T08:37:50;101650.00;;;7.20
15607;BMP180;7865;50.918;4.510;2024-02-28T08:42:51;101652.00;;;7.40
15607;BMP180;7865;50.918;4.510;2024-02-28T08:47:55;101650.00;;;7.60
15607;BMP180;7865;50.918;4.510;2024-02-28T08:52:58;101648.00;;;7.70
15607;BMP180;7865;50.918;4.510;2024-02-28T08:57:59;101658.00;;;7.70
15607;BMP180;7865;50.918;4.510;2024-02-28T09:03:01;101655.00;;;7.60
15607;BMP180;7865;50.918;4.510;2024-02-28T09:08:03;101659.00;;;7.50
15607;BMP180;7865;50.918;4.510;2024-02-28T09:13:04;101664.00;;;7.50
15607;BMP180;7865;50.918;4.510;2024-02-28T09:18:05;101663.00;;;7.40
15607;BMP180;7865;50.918;4.510;2024-02-28T09:23:06;101662.00;;;7.20
15607;BMP180;7865;50.918;4.510;2024-02-28T09:28:08;101666.00;;;7.20
15607;BMP180;7865;50.918;4.510;2024-02-28T09:33:11;101676.00;;;7.30
15607;BMP180;7865;50.918;4.510;2024-02-28T09:38:13;101668.00;;;7.30
15607;BMP180;7865;50.918;4.510;2024-02-28T09:43:31;101673.00;;;7.40
15607;BMP180;7865;50.918;4.510;2024-02-28T09:48:32;101663.00;;;7.40
15607;BMP180;7865;50.918;4.510;2024-02-28T09:53:34;101657.00;;;7.70
15607;BMP180;7865;50.918;4.510;2024-02-28T09:58:35;101664.00;;;8.20
15607;BMP180;7865;50.918;4.510;2024-02-28T10:03:37;101653.00;;;8.40
15607;BMP180;7865;50.918;4.510;2024-02-28T10:08:40;101663.00;;;8.40
15607;BMP180;7865;50.918;4.510;2024-02-28T10:13:41;101654.00;;;8.50
15607;BMP180;7865;50.918;4.510;2024-02-28T10:18:43;101655.00;;;8.90
15607;BMP180;7865;50.918;4.510;2024-02-28T10:23:45;101652.00;;;9.30
15607;BMP180;7865;50.918;4.510;2024-02-28T10:28:46;101642.00;;;9.70
15607;BMP180;7865;50.918;4.510;2024-02-28T10:33:47;101643.00;;;9.90
15607;BMP180;7865;50.918;4.510;2024-02-28T10:38:49;101635.00;;;10.20
15607;BMP180;7865;50.918;4.510;2024-02-28T10:43:51;101634.00;;;10.50
15607;BMP180;7865;50.918;4.510;2024-02-28T10:48:52;101628.00;;;11.00
15607;BMP180;7865;50.918;4.510;2024-02-28T10:54:08;101638.00;;;11.30
15607;BMP180;7865;50.918;4.510;2024-02-28T10:59:11;101635.00;;;11.00
15607;BMP180;7865;50.918;4.510;2024-02-28T11:04:16;101637.00;;;11.10
15607;BMP180;7865;50.918;4.510;2024-02-28T11:09:24;101642.00;;;11.30
15607;BMP180;7865;50.918;4.510;2024-02-28T11:14:29;101636.00;;;10.90
15607;BMP180;7865;50.918;4.510;2024-02-28T11:19:32;101628.00;;;10.70
15607;BMP180;7865;50.918;4.510;2024-02-28T11:24:34;101632.00;;;10.50
15607;BMP180;7865;50.918;4.510;2024-02-28T11:29:38;101648.00;;;10.50
15607;BMP180;7865;50.918;4.510;2024-02-28T11:34:39;101642.00;;;10.40
15607;BMP180;7865;50.918;4.510;2024-02-28T11:39:49;101636.00;;;10.60
15607;BMP180;7865;50.918;4.510;2024-02-28T11:44:54;101631.00;;;10.90
15607;BMP180;7865;50.918;4.510;2024-02-28T11:50:03;101625.00;;;10.80
15607;BMP180;7865;50.918;4.510;2024-02-28T11:55:08;101623.00;;;10.90
15607;BMP180;7865;50.918;4.510;2024-02-28T12:00:10;101618.00;;;10.90
15607;BMP180;7865;50.918;4.510;2024-02-28T12:05:13;101617.00;;;10.90
15607;BMP180;7865;50.918;4.510;2024-02-28T12:10:15;101606.00;;;10.80
15607;BMP180;7865;50.918;4.510;2024-02-28T12:15:16;101608.00;;;10.90
15607;BMP180;7865;50.918;4.510;2024-02-28T12:20:17;101602.00;;;11.30
15607;BMP180;7865;50.918;4.510;2024-02-28T12:25:19;101596.00;;;11.40
15607;BMP180;7865;50.918;4.510;2024-02-28T12:30:20;101589.00;;;11.40
15607;BMP180;7865;50.918;4.510;2024-02-28T12:35:22;101577.00;;;11.30
15607;BMP180;7865;50.918;4.510;2024-02-28T12:40:23;101571.00;;;11.30
15607;BMP180;7865;50.918;4.510;2024-02-28T12:45:26;101578.00;;;11.30
15607;BMP180;7865;50.918;4.510;2024-02-28T12:50:27;101581.00;;;11.40
15607;BMP180;7865;50.918;4.510;2024-02-28T12:55:28;101567.00;;;11.50
15607;BMP180;7865;50.918;4.510;2024-02-28T13:00:30;101568.00;;;11.50
15607;BMP180;7865;50.918;4.510;2024-02-28T13:05:32;101560.00;;;11.40
15607;BMP180;7865;50.918;4.510;2024-02-28T13:10:33;101556.00;;;11.30
15607;BMP180;7865;50.918;4.510;2024-02-28T13:15:42;101568.00;;;11.40
15607;BMP180;7865;50.918;4.510;2024-02-28T13:20:46;101572.00;;;11.20
15607;BMP180;7865;50.918;4.510;2024-02-28T13:25:47;101560.00;;;11.10
15607;BMP180;7865;50.918;4.510;2024-02-28T13:30:49;101563.00;;;11.20
15607;BMP180;7865;50.918;4.510;2024-02-28T13:35:50;101560.00;;;11.50
15607;BMP180;7865;50.918;4.510;2024-02-28T13:40:52;101542.00;;;11.90
15607;BMP180;7865;50.918;4.510;2024-02-28T13:45:53;101508.00;;;12.30
15607;BMP180;7865;50.918;4.510;2024-02-28T13:50:56;101504.00;;;12.60
15607;BMP180;7865;50.918;4.510;2024-02-28T13:55:57;101488.00;;;13.00
15607;BMP180;7865;50.918;4.510;2024-02-28T14:00:58;101473.00;;;13.20
15607;BMP180;7865;50.918;4.510;2024-02-28T14:06:01;101473.00;;;13.20
15607;BMP180;7865;50.918;4.510;2024-02-28T14:11:02;101474.00;;;13.10
15607;BMP180;7865;50.918;4.510;2024-02-28T14:16:03;101480.00;;;13.20
15607;BMP180;7865;50.918;4.510;2024-02-28T14:21:05;101481.00;;;13.00
15607;BMP180;7865;50.918;4.510;2024-02-28T14:26:08;101481.00;;;12.90
15607;BMP180;7865;50.918;4.510;2024-02-28T14:31:10;101486.00;;;12.70
15607;BMP180;7865;50.918;4.510;2024-02-28T14:36:11;101484.00;;;12.70
15607;BMP180;7865;50.918;4.510;2024-02-28T14:41:13;101490.00;;;12.60
15607;BMP180;7865;50.918;4.510;2024-02-28T14:46:14;101488.00;;;12.80
15607;BMP180;7865;50.918;4.510;2024-02-28T14:51:18;101484.00;;;12.60
15607;BMP180;7865;50.918;4.510;2024-02-28T14:56:20;101478.00;;;12.30
15607;BMP180;7865;50.918;4.510;2024-02-28T15:01:22;101490.00;;;11.90
15607;BMP180;7865;50.918;4.510;2024-02-28T15:06:24;101489.00;;;11.60
15607;BMP180;7865;50.918;4.510;2024-02-28T15:11:25;101490.00;;;11.70
15607;BMP180;7865;50.918;4.510;2024-02-28T15:16:26;101494.00;;;11.50
15607;BMP180;7865;50.918;4.510;2024-02-28T15:21:28;101479.00;;;11.60
15607;BMP180;7865;50.918;4.510;2024-02-28T15:26:30;101474.00;;;11.60
15607;BMP180;7865;50.918;4.510;2024-02-28T15:31:43;101462.00;;;11.60
15607;BMP180;7865;50.918;4.510;2024-02-28T15:36:44;101465.00;;;11.20
15607;BMP180;7865;50.918;4.510;2024-02-28T15:41:45;101474.00;;;10.80
15607;BMP180;7865;50.918;4.510;2024-02-28T15:46:47;101448.00;;;10.80
15607;BMP180;7865;50.918;4.510;2024-02-28T15:51:48;101451.00;;;10.80
15607;BMP180;7865;50.918;4.510;2024-02-28T15:56:50;101458.00;;;10.60
15607;BMP180;7865;50.918;4.510;2024-02-28T16:01:51;101440.00;;;10.50
15607;BMP180;7865;50.918;4.510;2024-02-28T16:06:52;101449.00;;;10.40
15607;BMP180;7865;50.918;4.510;2024-02-28T16:11:53;101442.00;;;10.30
15607;BMP180;7865;50.918;4.510;2024-02-28T16:16:54;101449.00;;;10.20
15607;BMP180;7865;50.918;4.510;2024-02-28T16:21:56;101449.00;;;10.10
15607;BMP180;7865;50.918;4.510;2024-02-28T16:26:57;101447.00;;;9.90
15607;BMP180;7865;50.918;4.510;2024-02-28T16:31:58;101457.00;;;9.80
15607;BMP180;7865;50.918;4.510;2024-02-28T16:36:59;101459.00;;;9.70
15607;BMP180;7865;50.918;4.510;2024-02-28T16:42:03;101445.00;;;9.60
15607;BMP180;7865;50.918;4.510;2024-02-28T16:47:04;101443.00;;;9.50
15607;BMP180;7865;50.918;4.510;2024-02-28T16:52:06;101441.00;;;9.40
15607;BMP180;7865;50.918;4.510;2024-02-28T16:57:07;101413.00;;;9.30
15607;BMP180;7865;50.918;4.510;2024-02-28T17:02:08;101414.00;;;9.10
15607;BMP180;7865;50.918;4.510;2024-02-28T17:07:10;101421.00;;;9.00
15607;BMP180;7865;50.918;4.510;2024-02-28T17:12:11;101424.00;;;8.80
15607;BMP180;7865;50.918;4.510;2024-02-28T17:17:13;101416.00;;;8.70
15607;BMP180;7865;50.918;4.510;2024-02-28T17:22:15;101419.00;;;8.70
15607;BMP180;7865;50.918;4.510;2024-02-28T17:27:17;101422.00;;;8.60
15607;BMP180;7865;50.918;4.510;2024-02-28T17:32:18;101425.00;;;8.50
15607;BMP180;7865;50.918;4.510;2024-02-28T17:37:19;101415.00;;;8.40
15607;BMP180;7865;50.918;4.510;2024-02-28T17:42:22;101428.00;;;8.40
15607;BMP180;7865;50.918;4.510;2024-02-28T17:47:23;101422.00;;;8.30
15607;BMP180;7865;50.918;4.510;2024-02-28T17:52:26;101420.00;;;8.30
15607;BMP180;7865;50.918;4.510;2024-02-28T17:57:28;101417.00;;;8.20
15607;BMP180;7865;50.918;4.510;2024-02-28T18:02:33;101416.00;;;8.10
15607;BMP180;7865;50.918;4.510;2024-02-28T18:07:34;101414.00;;;8.00
15607;BMP180;7865;50.918;4.510;2024-02-28T18:12:39;101409.00;;;7.90
15607;BMP180;7865;50.918;4.510;2024-02-28T18:17:40;101410.00;;;7.90
15607;BMP180;7865;50.918;4.510;2024-02-28T18:22:41;101405.00;;;7.80
15607;BMP180;7865;50.918;4.510;2024-02-28T18:27:43;101386.00;;;7.70
15607;BMP180;7865;50.918;4.510;2024-02-28T18:32:44;101390.00;;;7.70
15607;BMP180;7865;50.918;4.510;2024-02-28T18:37:48;101381.00;;;7.60
15607;BMP180;7865;50.918;4.510;2024-02-28T18:42:49;101377.00;;;7.60
15607;BMP180;7865;50.918;4.510;2024-02-28T18:47:50;101385.00;;;7.50
15607;BMP180;7865;50.918;4.510;2024-02-28T18:52:54;101388.00;;;7.50
15607;BMP180;7865;50.918;4.510;2024-02-28T18:57:56;101381.00;;;7.30
15607;BMP180;7865;50.918;4.510;2024-02-28T19:02:59;101381.00;;;7.20
15607;BMP180;7865;50.918;4.510;2024-02-28T19:08:01;101370.00;;;7.00
15607;BMP180;7865;50.918;4.510;2024-02-28T19:13:03;101346.00;;;6.90
15607;BMP180;7865;50.918;4.510;2024-02-28T19:18:05;101352.00;;;6.90
15607;BMP180;7865;50.918;4.510;2024-02-28T19:23:08;101349.00;;;6.80
15607;BMP180;7865;50.918;4.510;2024-02-28T19:28:09;101350.00;;;6.70
15607;BMP180;7865;50.918;4.510;2024-02-28T19:33:10;101349.00;;;6.70
15607;BMP180;7865;50.918;4.510;2024-02-28T19:38:11;101342.00;;;6.70
15607;BMP180;7865;50.918;4.510;2024-02-28T19:43:12;101332.00;;;6.60
15607;BMP180;7865;50.918;4.510;2024-02-28T19:48:14;101332.00;;;6.60
15607;BMP180;7865;50.918;4.510;2024-02-28T19:53:15;101339.00;;;6.50
15607;BMP180;7865;50.918;4.510;2024-02-28T19:58:17;101331.00;;;6.40
15607;BMP180;7865;50.918;4.510;2024-02-28T20:03:18;101334.00;;;6.40
15607;BMP180;7865;50.918;4.510;2024-02-28T20:08:20;101325.00;;;6.30
15607;BMP180;7865;50.918;4.510;2024-02-28T20:13:21;101321.00;;;6.30
15607;BMP180;7865;50.918;4.510;2024-02-28T20:18:22;101314.00;;;6.30
15607;BMP180;7865;50.918;4.510;2024-02-28T20:23:27;101312.00;;;6.30
15607;BMP180;7865;50.918;4.510;2024-02-28T20:28:28;101304.00;;;6.40
15607;BMP180;7865;50.918;4.510;2024-02-28T20:33:29;101296.00;;;6.40
15607;BMP180;7865;50.918;4.510;2024-02-28T20:38:30;101284.00;;;6.30
15607;BMP180;7865;50.918;4.510;2024-02-28T20:43:32;101280.00;;;6.20
15607;BMP180;7865;50.918;4.510;2024-02-28T20:48:33;101274.00;;;6.10
15607;BMP180;7865;50.918;4.510;2024-02-28T20:53:34;101274.00;;;6.10
15607;BMP180;7865;50.918;4.510;2024-02-28T20:58:39;101251.00;;;6.00
15607;BMP180;7865;50.918;4.510;2024-02-28T21:03:41;101251.00;;;6.00
15607;BMP180;7865;50.918;4.510;2024-02-28T21:08:42;101237.00;;;5.90
15607;BMP180;7865;50.918;4.510;2024-02-28T21:13:43;101236.00;;;5.90
15607;BMP180;7865;50.918;4.510;2024-02-28T21:18:45;101234.00;;;6.00
15607;BMP180;7865;50.918;4.510;2024-02-28T21:23:47;101221.00;;;5.90
15607;BMP180;7865;50.918;4.510;2024-02-28T21:28:48;101208.00;;;5.90
15607;BMP180;7865;50.918;4.510;2024-02-28T21:33:49;101206.00;;;5.80
15607;BMP180;7865;50.918;4.510;2024-02-28T21:38:51;101204.00;;;5.80
15607;BMP180;7865;50.918;4.510;2024-02-28T21:43:52;101196.00;;;5.70
15607;BMP180;7865;50.918;4.510;2024-02-28T21:48:57;101187.00;;;5.80
15607;BMP180;7865;50.918;4.510;2024-02-28T21:54:10;101189.00;;;5.70
15607;BMP180;7865;50.918;4.510;2024-02-28T21:59:13;101181.00;;;5.60
15607;BMP180;7865;50.918;4.510;2024-02-28T22:04:14;101162.00;;;5.60
15607;BMP180;7865;50.918;4.510;2024-02-28T22:09:15;101166.00;;;5.50
15607;BMP180;7865;50.918;4.510;2024-02-28T22:14:16;101159.00;;;5.50
15607;BMP180;7865;50.918;4.510;2024-02-28T22:19:17;101153.00;;;5.60
15607;BMP180;7865;50.918;4.510;2024-02-28T22:24:19;101150.00;;;5.70
15607;BMP180;7865;50.918;4.510;2024-02-28T22:29:20;101137.00;;;5.80
15607;BMP180;7865;50.918;4.510;2024-02-28T22:34:23;101135.00;;;5.80
15607;BMP180;7865;50.918;4.510;2024-02-28T22:39:24;101138.00;;;5.80
15607;BMP180;7865;50.918;4.510;2024-02-28T22:44:27;101135.00;;;5.80
15607;BMP180;7865;50.918;4.510;2024-02-28T22:49:28;101120.00;;;5.90
15607;BMP180;7865;50.918;4.510;2024-02-28T22:54:29;101106.00;;;5.80
15607;BMP180;7865;50.918;4.510;2024-02-28T22:59:30;101108.00;;;5.80
15607;BMP180;7865;50.918;4.510;2024-02-28T23:04:32;101092.00;;;5.80
15607;BMP180;7865;50.918;4.510;2024-02-28T23:09:33;101092.00;;;5.90
15607;BMP180;7865;50.918;4.510;2024-02-28T23:14:34;101091.00;;;5.80
15607;BMP180;7865;50.918;4.510;2024-02-28T23:19:35;101086.00;;;5.90
15607;BMP180;7865;50.918;4.510;2024-02-28T23:24:37;101079.00;;;5.90
15607;BMP180;7865;50.918;4.510;2024-02-28T23:29:38;101070.00;;;6.00
15607;BMP180;7865;50.918;4.510;2024-02-28T23:34:39;101065.00;;;6.00
15607;BMP180;7865;50.918;4.510;2024-02-28T23:39:40;101063.00;;;6.10
15607;BMP180;7865;50.918;4.510;2024-02-28T23:44:42;101064.00;;;6.10
15607;BMP180;7865;50.918;4.510;2024-02-28T23:49:43;101072.00;;;6.10
15607;BMP180;7865;50.918;4.510;2024-02-28T23:54:45;101051.00;;;6.10
15607;BMP180;7865;50.918;4.510;2024-02-28T23:59:47;101061.00;;;6.00
